< Cyclone 202003 2020 Season Cyclone 202006 >
Cyclone 202005 (Damien)
General InformationDetailed Track InformationTrack Information on Google Maps || ResourceGoogle EarthGE AnimationAtom FeedGeoJSON
Detalied Best Track Wind (Time Zone = UTC)
Year Month Day Hour Lat. Long. Wind (kt) Gust (kt) Direc. of Major Storm Axis Radius of Major Storm Axis (nm) Radius of Minor Storm Axis (nm) Direc. of Major Gale Axis Radius of Major Gale Axis (nm) Radius of Minor Gale Axis (nm) Image
2020 2 3 00 -16.6 129.3 15 35 symmetric - - symmetric - - Image
2020 2 3 06 -16.5 129.0 15 35 symmetric - - symmetric - - Image
2020 2 3 12 -16.4 128.7 15 35 symmetric - - symmetric - - Image
2020 2 3 18 -16.1 127.8 15 35 symmetric - - symmetric - - Image
2020 2 4 00 -15.9 127.1 15 35 symmetric - - symmetric - - Image
2020 2 4 06 -16.0 126.4 15 35 symmetric - - symmetric - - Image
2020 2 4 12 -16.1 125.7 15 35 symmetric - - symmetric - - Image
2020 2 4 18 -16.3 124.8 20 45 symmetric - - symmetric - - Image
2020 2 5 00 -16.4 124.0 20 45 symmetric - - symmetric - - Image
2020 2 5 06 -16.5 122.9 20 45 symmetric - - symmetric - - Image
2020 2 5 12 -16.7 122.0 25 45 symmetric - - symmetric - - Image
2020 2 5 18 -16.6 121.6 30 45 symmetric - - symmetric - - Image
2020 2 6 00 -16.7 120.2 30 45 symmetric - - symmetric - - Image
2020 2 6 06 -17.2 119.7 35 50 symmetric - - symmetric - - Image
2020 2 6 09 -17.5 119.2 40 55 symmetric - - symmetric - - Image
2020 2 6 12 -17.3 118.4 40 55 symmetric - - symmetric - - Image
2020 2 6 18 -17.4 117.9 50 70 symmetric - - symmetric - - Image
2020 2 7 00 -17.8 117.4 65 90 symmetric - - symmetric - - Image
2020 2 7 06 -18.0 117.0 65 90 symmetric - - symmetric - - Image
2020 2 7 09 -18.2 116.9 65 90 symmetric - - symmetric - - Image
2020 2 7 12 -18.5 116.8 75 105 symmetric - - symmetric - - Image
2020 2 7 15 -18.7 116.7 75 105 symmetric - - symmetric - - Image
2020 2 7 18 -19.0 116.5 75 105 symmetric - - symmetric - - Image
2020 2 7 21 -19.3 116.5 80 110 symmetric - - symmetric - - Image
2020 2 8 00 -19.5 116.4 80 110 symmetric - - symmetric - - Image
2020 2 8 01 -19.6 116.5 80 120 symmetric - - symmetric - - Image
2020 2 8 02 -19.7 116.5 80 120 symmetric - - symmetric - - Image
2020 2 8 03 -19.8 116.5 85 120 symmetric - - symmetric - - Image
2020 2 8 04 -20.0 116.6 85 120 symmetric - - symmetric - - Image
2020 2 8 05 -20.2 116.6 85 120 symmetric - - symmetric - - Image
2020 2 8 06 -20.3 116.7 85 120 symmetric - - symmetric - - Image
2020 2 8 07 -20.5 116.7 85 120 symmetric - - symmetric - - Image
2020 2 8 08 -20.7 116.8 85 120 symmetric - - symmetric - - Image
2020 2 8 09 -20.8 116.8 80 110 symmetric - - symmetric - - Image
2020 2 8 12 -21.1 117.0 70 100 symmetric - - symmetric - - Image
2020 2 8 15 -21.4 117.2 60 85 symmetric - - symmetric - - Image
2020 2 8 18 -21.8 117.4 50 75 symmetric - - symmetric - - Image
2020 2 9 00 -22.5 117.5 35 50 symmetric - - symmetric - - Image
2020 2 9 03 -23.0 117.5 35 50 symmetric - - symmetric - - Image
2020 2 9 06 -23.4 117.6 30 45 symmetric - - symmetric - - Image
2020 2 9 12 -23.7 117.6 30 45 symmetric - - symmetric - - Image
2020 2 9 18 -24.0 117.7 30 45 symmetric - - symmetric - - Image
2020 2 10 00 -24.6 117.7 25 40 symmetric - - symmetric - - Image
2020 2 10 06 -25.2 117.8 25 35 symmetric - - symmetric - - Image
2020 2 10 12 -25.6 118.0 25 35 symmetric - - symmetric - - Image
< Cyclone 202003 2020 Season Cyclone 202006 >

Help